sensor_id;sensor_type;location;lat;lon;timestamp;pressure;altitude;pressure_sealevel;temperature;humidity
10482;BME280;5288;42.334;23.876;2023-05-03T00:01:40;56213.47;;;-140.56;41.68
10482;BME280;5288;42.334;23.876;2023-05-03T00:04:08;56219.41;;;-140.56;41.74
10482;BME280;5288;42.334;23.876;2023-05-03T00:06:35;56211.50;;;-140.56;41.79
10482;BME280;5288;42.334;23.876;2023-05-03T00:09:03;56219.41;;;-140.56;41.59
10482;BME280;5288;42.334;23.876;2023-05-03T00:11:30;56213.47;;;-140.56;41.52
10482;BME280;5288;42.334;23.876;2023-05-03T00:13:57;56201.63;;;-140.56;41.60
10482;BME280;5288;42.334;23.876;2023-05-03T00:16:24;56191.72;;;-140.56;41.65
10482;BME280;5288;42.334;23.876;2023-05-03T00:18:51;56189.75;;;-140.56;41.79
10482;BME280;5288;42.334;23.876;2023-05-03T00:21:18;56207.53;;;-140.56;41.63
10482;BME280;5288;42.334;23.876;2023-05-03T00:23:46;56201.63;;;-140.56;41.71
10482;BME280;5288;42.334;23.876;2023-05-03T00:26:14;56225.31;;;-140.56;44.15
10482;BME280;5288;42.334;23.876;2023-05-03T00:28:41;56183.81;;;-140.56;44.30
10482;BME280;5288;42.334;23.876;2023-05-03T00:31:09;56209.50;;;-140.56;45.37
10482;BME280;5288;42.334;23.876;2023-05-03T00:33:37;56205.56;;;-140.56;45.12
10482;BME280;5288;42.334;23.876;2023-05-03T00:36:07;56201.63;;;-140.56;43.74
10482;BME280;5288;42.334;23.876;2023-05-03T00:38:35;56171.97;;;-140.56;44.75
10482;BME280;5288;42.334;23.876;2023-05-03T00:41:02;56217.41;;;-140.56;44.26
10482;BME280;5288;42.334;23.876;2023-05-03T00:43:30;56217.41;;;-140.56;44.81
10482;BME280;5288;42.334;23.876;2023-05-03T00:45:58;56233.22;;;-140.56;44.64
10482;BME280;5288;42.334;23.876;2023-05-03T00:48:25;56251.03;;;-140.56;45.37
10482;BME280;5288;42.334;23.876;2023-05-03T00:50:53;56213.47;;;-140.56;46.13
10482;BME280;5288;42.334;23.876;2023-05-03T00:53:21;56243.13;;;-140.56;45.61
10482;BME280;5288;42.334;23.876;2023-05-03T00:55:51;56211.50;;;-140.56;45.51
10482;BME280;5288;42.334;23.876;2023-05-03T00:58:19;56233.22;;;-140.56;45.38
10482;BME280;5288;42.334;23.876;2023-05-03T01:00:47;56209.50;;;-140.56;45.96
10482;BME280;5288;42.334;23.876;2023-05-03T01:03:14;56227.31;;;-140.56;46.42
10482;BME280;5288;42.334;23.876;2023-05-03T01:05:57;56272.75;;;-140.56;46.41
10482;BME280;5288;42.334;23.876;2023-05-03T01:08:30;56241.13;;;-140.56;47.29
10482;BME280;5288;42.334;23.876;2023-05-03T01:11:03;56231.25;;;-140.56;47.10
10482;BME280;5288;42.334;23.876;2023-05-03T01:13:40;56207.53;;;-140.56;46.80
10482;BME280;5288;42.334;23.876;2023-05-03T01:16:17;56199.63;;;-140.56;46.05
10482;BME280;5288;42.334;23.876;2023-05-03T01:18:47;56207.53;;;-140.56;46.78
10482;BME280;5288;42.334;23.876;2023-05-03T01:21:17;56237.19;;;-140.56;46.45
10482;BME280;5288;42.334;23.876;2023-05-03T01:23:54;56237.19;;;-140.56;47.52
10482;BME280;5288;42.334;23.876;2023-05-03T01:26:25;56201.63;;;-140.56;48.61
10482;BME280;5288;42.334;23.876;2023-05-03T01:28:52;56193.72;;;-140.56;47.84
10482;BME280;5288;42.334;23.876;2023-05-03T01:31:24;56235.22;;;-140.56;47.27
10482;BME280;5288;42.334;23.876;2023-05-03T01:34:04;56203.59;;;-140.56;48.05
10482;BME280;5288;42.334;23.876;2023-05-03T01:36:40;56217.41;;;-140.56;48.07
10482;BME280;5288;42.334;23.876;2023-05-03T01:39:11;56237.19;;;-140.56;49.08
10482;BME280;5288;42.334;23.876;2023-05-03T01:41:42;56229.28;;;-140.56;49.23
10482;BME280;5288;42.334;23.876;2023-05-03T01:44:09;56239.16;;;-140.56;50.20
10482;BME280;5288;42.334;23.876;2023-05-03T01:46:41;56191.72;;;-140.56;50.51
10482;BME280;5288;42.334;23.876;2023-05-03T01:49:08;56205.56;;;-140.56;50.96
10482;BME280;5288;42.334;23.876;2023-05-03T01:51:35;56227.31;;;-140.56;51.46
10482;BME280;5288;42.334;23.876;2023-05-03T01:54:03;56213.47;;;-140.56;50.16
10482;BME280;5288;42.334;23.876;2023-05-03T01:56:34;56199.63;;;-140.56;50.12
10482;BME280;5288;42.334;23.876;2023-05-03T01:59:03;56223.34;;;-140.56;50.14
10482;BME280;5288;42.334;23.876;2023-05-03T02:01:30;56227.31;;;-140.56;50.54
10482;BME280;5288;42.334;23.876;2023-05-03T02:03:57;56227.31;;;-140.56;51.28
10482;BME280;5288;42.334;23.876;2023-05-03T02:06:24;56201.63;;;-140.56;51.04
10482;BME280;5288;42.334;23.876;2023-05-03T02:08:51;56227.31;;;-140.56;51.63
10482;BME280;5288;42.334;23.876;2023-05-03T02:11:18;56231.25;;;-140.56;51.45
10482;BME280;5288;42.334;23.876;2023-05-03T02:13:47;56223.34;;;-140.56;51.28
10482;BME280;5288;42.334;23.876;2023-05-03T02:16:16;56272.75;;;-140.56;50.95
10482;BME280;5288;42.334;23.876;2023-05-03T02:18:43;56245.09;;;-140.56;52.44
10482;BME280;5288;42.334;23.876;2023-05-03T02:21:10;56231.25;;;-140.56;52.87
10482;BME280;5288;42.334;23.876;2023-05-03T02:23:37;56235.22;;;-140.56;52.42
10482;BME280;5288;42.334;23.876;2023-05-03T02:26:04;56243.13;;;-140.56;52.70
10482;BME280;5288;42.334;23.876;2023-05-03T02:28:31;56203.59;;;-140.56;52.20
10482;BME280;5288;42.334;23.876;2023-05-03T02:30:58;56241.13;;;-140.56;52.49
10482;BME280;5288;42.334;23.876;2023-05-03T02:33:26;56245.09;;;-140.56;52.55
10482;BME280;5288;42.334;23.876;2023-05-03T02:35:54;56247.06;;;-140.56;52.73
10482;BME280;5288;42.334;23.876;2023-05-03T02:38:21;56225.31;;;-140.56;52.77
10482;BME280;5288;42.334;23.876;2023-05-03T02:40:47;56197.66;;;-140.56;52.57
10482;BME280;5288;42.334;23.876;2023-05-03T02:43:14;56237.19;;;-140.56;52.20
10482;BME280;5288;42.334;23.876;2023-05-03T02:45:42;56201.63;;;-140.56;51.98
10482;BME280;5288;42.334;23.876;2023-05-03T02:48:09;56211.50;;;-140.56;51.85
10482;BME280;5288;42.334;23.876;2023-05-03T02:50:37;56233.22;;;-140.56;52.65
10482;BME280;5288;42.334;23.876;2023-05-03T02:53:04;56258.94;;;-140.56;52.21
10482;BME280;5288;42.334;23.876;2023-05-03T02:55:31;56233.22;;;-140.56;51.14
10482;BME280;5288;42.334;23.876;2023-05-03T02:57:58;56229.28;;;-140.56;51.40
10482;BME280;5288;42.334;23.876;2023-05-03T03:00:25;56247.06;;;-140.56;51.73
10482;BME280;5288;42.334;23.876;2023-05-03T03:02:52;56239.16;;;-140.56;50.89
10482;BME280;5288;42.334;23.876;2023-05-03T03:05:19;56195.69;;;-140.56;49.89
10482;BME280;5288;42.334;23.876;2023-05-03T03:07:48;56211.50;;;-140.56;50.94
10482;BME280;5288;42.334;23.876;2023-05-03T03:10:15;56213.47;;;-140.56;50.47
10482;BME280;5288;42.334;23.876;2023-05-03T03:12:42;56205.56;;;-140.56;51.19
10482;BME280;5288;42.334;23.876;2023-05-03T03:15:09;56233.22;;;-140.56;51.37
10482;BME280;5288;42.334;23.876;2023-05-03T03:17:37;56223.34;;;-140.56;51.02
10482;BME280;5288;42.334;23.876;2023-05-03T03:20:05;56209.50;;;-140.56;50.63
10482;BME280;5288;42.334;23.876;2023-05-03T03:22:35;56189.75;;;-140.56;50.83
10482;BME280;5288;42.334;23.876;2023-05-03T03:25:05;56219.41;;;-140.56;51.10
10482;BME280;5288;42.334;23.876;2023-05-03T03:27:32;56227.31;;;-140.56;51.21
10482;BME280;5288;42.334;23.876;2023-05-03T03:29:59;56195.69;;;-140.56;50.95
10482;BME280;5288;42.334;23.876;2023-05-03T03:32:26;56237.19;;;-140.56;51.75
10482;BME280;5288;42.334;23.876;2023-05-03T03:34:53;56294.50;;;-140.56;53.15
10482;BME280;5288;42.334;23.876;2023-05-03T03:37:20;56241.13;;;-140.56;53.67
10482;BME280;5288;42.334;23.876;2023-05-03T03:39:47;56219.41;;;-140.56;54.55
10482;BME280;5288;42.334;23.876;2023-05-03T03:42:16;56243.13;;;-140.56;55.67
10482;BME280;5288;42.334;23.876;2023-05-03T03:44:43;56207.53;;;-140.56;55.24
10482;BME280;5288;42.334;23.876;2023-05-03T03:47:10;56221.38;;;-140.56;55.91
10482;BME280;5288;42.334;23.876;2023-05-03T03:49:37;56219.41;;;-140.56;55.84
10482;BME280;5288;42.334;23.876;2023-05-03T03:52:04;56223.34;;;-140.56;57.14
10482;BME280;5288;42.334;23.876;2023-05-03T03:54:32;56219.41;;;-140.56;56.35
10482;BME280;5288;42.334;23.876;2023-05-03T03:57:00;56256.94;;;-140.56;53.94
10482;BME280;5288;42.334;23.876;2023-05-03T03:59:29;56258.94;;;-140.56;54.70
10482;BME280;5288;42.334;23.876;2023-05-03T04:01:56;56254.97;;;-140.56;55.34
10482;BME280;5288;42.334;23.876;2023-05-03T04:04:23;56223.34;;;-140.56;55.40
10482;BME280;5288;42.334;23.876;2023-05-03T04:06:50;56241.13;;;-140.56;55.21
10482;BME280;5288;42.334;23.876;2023-05-03T04:09:17;56239.16;;;-140.56;54.85
10482;BME280;5288;42.334;23.876;2023-05-03T04:11:44;56239.16;;;-140.56;55.72
10482;BME280;5288;42.334;23.876;2023-05-03T04:14:11;56215.44;;;-140.56;57.32
10482;BME280;5288;42.334;23.876;2023-05-03T04:16:40;56237.19;;;-140.56;57.71
10482;BME280;5288;42.334;23.876;2023-05-03T04:19:07;56221.38;;;-140.56;57.90
10482;BME280;5288;42.334;23.876;2023-05-03T04:21:34;56219.41;;;-140.56;58.73
10482;BME280;5288;42.334;23.876;2023-05-03T04:24:02;56199.63;;;-140.56;61.21
10482;BME280;5288;42.334;23.876;2023-05-03T04:26:30;56247.06;;;-140.56;59.17
10482;BME280;5288;42.334;23.876;2023-05-03T04:28:57;56258.94;;;-140.56;58.11
10482;BME280;5288;42.334;23.876;2023-05-03T04:31:24;56231.25;;;-140.56;57.26
10482;BME280;5288;42.334;23.876;2023-05-03T04:33:54;56239.16;;;-140.56;59.75
10482;BME280;5288;42.334;23.876;2023-05-03T04:36:21;56245.09;;;-140.56;60.34
10482;BME280;5288;42.334;23.876;2023-05-03T04:38:50;56203.59;;;-140.56;60.15
10482;BME280;5288;42.334;23.876;2023-05-03T04:41:17;56209.50;;;-140.56;60.35
10482;BME280;5288;42.334;23.876;2023-05-03T04:43:44;56205.56;;;-140.56;61.07
10482;BME280;5288;42.334;23.876;2023-05-03T04:46:11;56203.59;;;-140.56;61.44
10482;BME280;5288;42.334;23.876;2023-05-03T04:48:38;56225.31;;;-140.56;60.83
10482;BME280;5288;42.334;23.876;2023-05-03T04:51:06;56241.13;;;-140.56;60.43
10482;BME280;5288;42.334;23.876;2023-05-03T04:53:33;56231.25;;;-140.56;61.44
10482;BME280;5288;42.334;23.876;2023-05-03T04:56:00;56254.97;;;-140.56;62.00
10482;BME280;5288;42.334;23.876;2023-05-03T04:58:27;56249.03;;;-140.56;63.61
10482;BME280;5288;42.334;23.876;2023-05-03T05:00:54;56243.13;;;-140.56;63.39
10482;BME280;5288;42.334;23.876;2023-05-03T05:03:21;56266.81;;;-140.56;63.31
10482;BME280;5288;42.334;23.876;2023-05-03T05:05:48;56253.00;;;-140.56;64.79
10482;BME280;5288;42.334;23.876;2023-05-03T05:08:17;56229.28;;;-140.56;64.19
10482;BME280;5288;42.334;23.876;2023-05-03T05:10:45;56268.81;;;-140.56;62.68
10482;BME280;5288;42.334;23.876;2023-05-03T05:13:12;56256.94;;;-140.56;60.62
10482;BME280;5288;42.334;23.876;2023-05-03T05:15:39;56247.06;;;-140.56;61.84
10482;BME280;5288;42.334;23.876;2023-05-03T05:18:06;56237.19;;;-140.56;62.59
10482;BME280;5288;42.334;23.876;2023-05-03T05:20:33;56229.28;;;-140.56;62.40
10482;BME280;5288;42.334;23.876;2023-05-03T05:23:00;56258.94;;;-140.56;62.77
10482;BME280;5288;42.334;23.876;2023-05-03T05:25:29;56256.94;;;-140.56;63.13
10482;BME280;5288;42.334;23.876;2023-05-03T05:27:56;56243.13;;;-140.56;62.20
10482;BME280;5288;42.334;23.876;2023-05-03T05:30:23;56243.13;;;-140.56;59.86
10482;BME280;5288;42.334;23.876;2023-05-03T05:32:50;56253.00;;;-140.56;59.45
10482;BME280;5288;42.334;23.876;2023-05-03T05:35:17;56243.13;;;-140.56;60.09
10482;BME280;5288;42.334;23.876;2023-05-03T05:37:44;56213.47;;;-140.56;58.79
10482;BME280;5288;42.334;23.876;2023-05-03T05:40:12;56249.03;;;-140.56;59.78
10482;BME280;5288;42.334;23.876;2023-05-03T05:42:40;56233.22;;;-140.56;58.92
10482;BME280;5288;42.334;23.876;2023-05-03T05:45:08;56229.28;;;-140.56;59.42
10482;BME280;5288;42.334;23.876;2023-05-03T05:47:35;56219.41;;;-140.56;60.27
10482;BME280;5288;42.334;23.876;2023-05-03T05:50:03;56249.03;;;-140.56;62.35
10482;BME280;5288;42.334;23.876;2023-05-03T05:52:30;56266.81;;;-140.56;60.74
10482;BME280;5288;42.334;23.876;2023-05-03T05:54:57;56239.16;;;-140.56;61.63
10482;BME280;5288;42.334;23.876;2023-05-03T05:57:24;56282.63;;;-140.56;63.16
10482;BME280;5288;42.334;23.876;2023-05-03T05:59:52;56235.22;;;-140.56;62.78
10482;BME280;5288;42.334;23.876;2023-05-03T06:02:20;56253.00;;;-140.56;62.60
10482;BME280;5288;42.334;23.876;2023-05-03T06:04:49;56235.22;;;-140.56;62.80
10482;BME280;5288;42.334;23.876;2023-05-03T06:07:16;56241.13;;;-140.56;61.39
10482;BME280;5288;42.334;23.876;2023-05-03T06:09:43;56266.81;;;-140.56;61.92
10482;BME280;5288;42.334;23.876;2023-05-03T06:12:10;56266.81;;;-140.56;62.47
10482;BME280;5288;42.334;23.876;2023-05-03T06:14:42;56253.00;;;-140.56;61.87
10482;BME280;5288;42.334;23.876;2023-05-03T06:17:13;56251.03;;;-140.56;62.10
10482;BME280;5288;42.334;23.876;2023-05-03T06:19:40;56241.13;;;-140.56;62.35
10482;BME280;5288;42.334;23.876;2023-05-03T06:22:07;56245.09;;;-140.56;62.10
10482;BME280;5288;42.334;23.876;2023-05-03T06:24:34;56233.22;;;-140.56;61.96
10482;BME280;5288;42.334;23.876;2023-05-03T06:27:01;56243.13;;;-140.56;62.31
10482;BME280;5288;42.334;23.876;2023-05-03T06:29:28;56221.38;;;-140.56;61.50
10482;BME280;5288;42.334;23.876;2023-05-03T06:31:57;56227.31;;;-140.56;61.01
10482;BME280;5288;42.334;23.876;2023-05-03T06:34:26;56231.25;;;-140.56;61.21
10482;BME280;5288;42.334;23.876;2023-05-03T06:36:53;56229.28;;;-140.56;60.94
10482;BME280;5288;42.334;23.876;2023-05-03T06:39:20;56260.91;;;-140.56;61.88
10482;BME280;5288;42.334;23.876;2023-05-03T06:41:47;56245.09;;;-140.56;60.94
10482;BME280;5288;42.334;23.876;2023-05-03T06:44:14;56239.16;;;-140.56;62.04
10482;BME280;5288;42.334;23.876;2023-05-03T06:46:41;56229.28;;;-140.56;61.66
10482;BME280;5288;42.334;23.876;2023-05-03T06:49:08;56233.22;;;-140.56;60.77
10482;BME280;5288;42.334;23.876;2023-05-03T06:51:37;56254.97;;;-140.56;61.44
10482;BME280;5288;42.334;23.876;2023-05-03T06:54:04;56227.31;;;-140.56;61.42
10482;BME280;5288;42.334;23.876;2023-05-03T06:56:33;56215.44;;;-140.56;61.33
10482;BME280;5288;42.334;23.876;2023-05-03T06:59:01;56227.31;;;-140.56;61.13
10482;BME280;5288;42.334;23.876;2023-05-03T07:01:28;56262.88;;;-140.56;60.88
10482;BME280;5288;42.334;23.876;2023-05-03T07:03:55;56249.03;;;-140.56;62.26
10482;BME280;5288;42.334;23.876;2023-05-03T07:06:22;56201.63;;;-140.56;61.92
10482;BME280;5288;42.334;23.876;2023-05-03T07:08:51;56245.09;;;-140.56;62.88
10482;BME280;5288;42.334;23.876;2023-05-03T07:11:18;56243.13;;;-140.56;61.99
10482;BME280;5288;42.334;23.876;2023-05-03T07:13:48;56237.19;;;-140.56;62.99
10482;BME280;5288;42.334;23.876;2023-05-03T07:16:15;56193.72;;;-140.56;61.43
10482;BME280;5288;42.334;23.876;2023-05-03T07:18:42;56249.03;;;-140.56;61.17
10482;BME280;5288;42.334;23.876;2023-05-03T07:21:09;56251.03;;;-140.56;61.84
10482;BME280;5288;42.334;23.876;2023-05-03T07:23:36;56217.41;;;-140.56;61.70
10482;BME280;5288;42.334;23.876;2023-05-03T07:26:04;56207.53;;;-140.56;61.21
10482;BME280;5288;42.334;23.876;2023-05-03T07:28:31;56213.47;;;-140.56;61.24
10482;BME280;5288;42.334;23.876;2023-05-03T07:30:58;56193.72;;;-140.56;62.09
10482;BME280;5288;42.334;23.876;2023-05-03T07:33:25;56247.06;;;-140.56;61.03
10482;BME280;5288;42.334;23.876;2023-05-03T07:35:54;56219.41;;;-140.56;61.25
10482;BME280;5288;42.334;23.876;2023-05-03T07:38:20;56217.41;;;-140.56;59.65
10482;BME280;5288;42.334;23.876;2023-05-03T07:40:47;56211.50;;;-140.56;56.99
10482;BME280;5288;42.334;23.876;2023-05-03T07:43:16;56247.06;;;-140.56;58.24
10482;BME280;5288;42.334;23.876;2023-05-03T07:45:44;56189.75;;;-140.56;55.80
10482;BME280;5288;42.334;23.876;2023-05-03T07:48:11;56195.69;;;-140.56;55.16
10482;BME280;5288;42.334;23.876;2023-05-03T07:50:40;56189.75;;;-140.56;55.04
10482;BME280;5288;42.334;23.876;2023-05-03T07:53:10;56179.88;;;-140.56;55.34
10482;BME280;5288;42.334;23.876;2023-05-03T07:55:37;56205.56;;;-140.56;56.32
10482;BME280;5288;42.334;23.876;2023-05-03T07:58:04;56207.53;;;-140.56;56.32
10482;BME280;5288;42.334;23.876;2023-05-03T08:00:33;56195.69;;;-140.56;56.18
10482;BME280;5288;42.334;23.876;2023-05-03T08:03:00;56237.19;;;-140.56;56.81
10482;BME280;5288;42.334;23.876;2023-05-03T08:05:28;56189.75;;;-140.56;58.43
10482;BME280;5288;42.334;23.876;2023-05-03T08:07:55;56211.50;;;-140.56;57.42
10482;BME280;5288;42.334;23.876;2023-05-03T08:10:22;56189.75;;;-140.56;56.77
10482;BME280;5288;42.334;23.876;2023-05-03T08:12:49;56171.97;;;-140.56;56.45
10482;BME280;5288;42.334;23.876;2023-05-03T08:15:16;56185.81;;;-140.56;55.75
10482;BME280;5288;42.334;23.876;2023-05-03T08:17:45;56171.97;;;-140.56;55.37
10482;BME280;5288;42.334;23.876;2023-05-03T08:20:12;56177.91;;;-140.56;54.85
10482;BME280;5288;42.334;23.876;2023-05-03T08:22:41;56152.22;;;-140.56;55.32
10482;BME280;5288;42.334;23.876;2023-05-03T08:25:09;56156.16;;;-140.56;54.76
10482;BME280;5288;42.334;23.876;2023-05-03T08:27:37;56168.00;;;-140.56;54.50
10482;BME280;5288;42.334;23.876;2023-05-03T08:30:06;56170.00;;;-140.56;55.02
10482;BME280;5288;42.334;23.876;2023-05-03T08:32:33;56195.69;;;-140.56;54.09
10482;BME280;5288;42.334;23.876;2023-05-03T08:35:01;56229.28;;;-140.56;53.93
10482;BME280;5288;42.334;23.876;2023-05-03T08:37:37;56183.81;;;-140.56;54.18
10482;BME280;5288;42.334;23.876;2023-05-03T08:40:05;56152.22;;;-140.56;54.09
10482;BME280;5288;42.334;23.876;2023-05-03T08:42:38;56160.13;;;-140.56;54.12
10482;BME280;5288;42.334;23.876;2023-05-03T08:45:06;56136.41;;;-140.56;55.25
10482;BME280;5288;42.334;23.876;2023-05-03T08:47:34;56173.94;;;-140.56;53.43
10482;BME280;5288;42.334;23.876;2023-05-03T08:50:05;56146.28;;;-140.56;52.26
10482;BME280;5288;42.334;23.876;2023-05-03T08:52:33;56138.38;;;-140.56;51.02
10482;BME280;5288;42.334;23.876;2023-05-03T08:55:00;56154.19;;;-140.56;52.67
10482;BME280;5288;42.334;23.876;2023-05-03T08:57:28;56122.56;;;-140.56;51.50
10482;BME280;5288;42.334;23.876;2023-05-03T08:59:56;56152.22;;;-140.56;50.95
10482;BME280;5288;42.334;23.876;2023-05-03T09:02:26;56124.53;;;-140.56;49.58
10482;BME280;5288;42.334;23.876;2023-05-03T09:04:53;56128.50;;;-140.56;49.28
10482;BME280;5288;42.334;23.876;2023-05-03T09:07:23;56130.47;;;-140.56;49.78
10482;BME280;5288;42.334;23.876;2023-05-03T09:09:50;56108.72;;;-140.56;50.70
10482;BME280;5288;42.334;23.876;2023-05-03T09:12:41;56152.22;;;-140.56;50.53
10482;BME280;5288;42.334;23.876;2023-05-03T09:15:20;56128.50;;;-140.56;51.45
10482;BME280;5288;42.334;23.876;2023-05-03T09:18:05;56122.56;;;-140.56;51.57
10482;BME280;5288;42.334;23.876;2023-05-03T09:20:33;56142.31;;;-140.56;49.70
10482;BME280;5288;42.334;23.876;2023-05-03T09:23:02;56148.25;;;-140.56;50.07
10482;BME280;5288;42.334;23.876;2023-05-03T09:25:39;56128.50;;;-140.56;49.61
10482;BME280;5288;42.334;23.876;2023-05-03T09:28:06;56140.34;;;-140.56;50.91
10482;BME280;5288;42.334;23.876;2023-05-03T09:30:33;56079.09;;;-140.56;48.79
10482;BME280;5288;42.334;23.876;2023-05-03T09:33:01;56120.59;;;-140.56;48.46
10482;BME280;5288;42.334;23.876;2023-05-03T09:35:28;56092.91;;;-140.56;49.28
10482;BME280;5288;42.334;23.876;2023-05-03T09:37:56;56138.38;;;-140.56;50.18
10482;BME280;5288;42.334;23.876;2023-05-03T09:40:25;56130.47;;;-140.56;50.26
10482;BME280;5288;42.334;23.876;2023-05-03T09:43:07;56116.63;;;-140.56;51.54
10482;BME280;5288;42.334;23.876;2023-05-03T09:45:35;56126.50;;;-140.56;52.37
10482;BME280;5288;42.334;23.876;2023-05-03T09:48:03;56144.31;;;-140.56;53.28
10482;BME280;5288;42.334;23.876;2023-05-03T09:50:31;56126.50;;;-140.56;53.46
10482;BME280;5288;42.334;23.876;2023-05-03T09:53:01;56150.22;;;-140.56;53.58
10482;BME280;5288;42.334;23.876;2023-05-03T09:55:32;56156.16;;;-140.56;54.08
10482;BME280;5288;42.334;23.876;2023-05-03T09:58:00;56160.13;;;-140.56;54.27
10482;BME280;5288;42.334;23.876;2023-05-03T10:00:34;56173.94;;;-140.56;54.15
10482;BME280;5288;42.334;23.876;2023-05-03T10:03:06;56158.13;;;-140.56;55.28
10482;BME280;5288;42.334;23.876;2023-05-03T10:05:39;56175.91;;;-140.56;55.57
10482;BME280;5288;42.334;23.876;2023-05-03T10:08:09;56199.63;;;-140.56;55.57
10482;BME280;5288;42.334;23.876;2023-05-03T10:10:43;56197.66;;;-140.56;55.90
10482;BME280;5288;42.334;23.876;2023-05-03T10:13:12;56166.03;;;-140.56;56.90
10482;BME280;5288;42.334;23.876;2023-05-03T10:15:41;56156.16;;;-140.56;56.90
10482;BME280;5288;42.334;23.876;2023-05-03T10:18:12;56140.34;;;-140.56;56.07
10482;BME280;5288;42.334;23.876;2023-05-03T10:20:43;56152.22;;;-140.56;56.01
10482;BME280;5288;42.334;23.876;2023-05-03T10:23:12;56177.91;;;-140.56;55.70
10482;BME280;5288;42.334;23.876;2023-05-03T10:26:13;56148.25;;;-140.56;55.98
10482;BME280;5288;42.334;23.876;2023-05-03T10:28:40;56154.19;;;-140.56;55.88
10482;BME280;5288;42.334;23.876;2023-05-03T10:31:44;56150.22;;;-140.56;54.96
10482;BME280;5288;42.334;23.876;2023-05-03T10:34:22;56164.06;;;-140.56;54.96
10482;BME280;5288;42.334;23.876;2023-05-03T10:36:50;56136.41;;;-140.56;54.26
10482;BME280;5288;42.334;23.876;2023-05-03T10:39:19;56116.63;;;-140.56;53.53
10482;BME280;5288;42.334;23.876;2023-05-03T10:41:57;56136.41;;;-140.56;53.50
10482;BME280;5288;42.334;23.876;2023-05-03T10:44:26;56124.53;;;-140.56;53.96
10482;BME280;5288;42.334;23.876;2023-05-03T10:46:54;56152.22;;;-140.56;53.58
10482;BME280;5288;42.334;23.876;2023-05-03T10:49:22;56138.38;;;-140.56;53.06
10482;BME280;5288;42.334;23.876;2023-05-03T10:51:51;56116.63;;;-140.56;54.23
10482;BME280;5288;42.334;23.876;2023-05-03T10:54:18;56126.50;;;-140.56;55.25
10482;BME280;5288;42.334;23.876;2023-05-03T10:56:53;56126.50;;;-140.56;54.32
10482;BME280;5288;42.334;23.876;2023-05-03T10:59:22;56148.25;;;-140.56;54.27
10482;BME280;5288;42.334;23.876;2023-05-03T11:01:51;56130.47;;;-140.56;54.58
10482;BME280;5288;42.334;23.876;2023-05-03T11:04:35;56132.44;;;-140.56;54.85
10482;BME280;5288;42.334;23.876;2023-05-03T11:07:05;56164.06;;;-140.56;54.20
10482;BME280;5288;42.334;23.876;2023-05-03T11:09:32;56156.16;;;-140.56;53.87
10482;BME280;5288;42.334;23.876;2023-05-03T11:12:04;56142.31;;;-140.56;55.70
10482;BME280;5288;42.334;23.876;2023-05-03T11:14:32;56170.00;;;-140.56;54.86
10482;BME280;5288;42.334;23.876;2023-05-03T11:16:59;56140.34;;;-140.56;54.30
10482;BME280;5288;42.334;23.876;2023-05-03T11:19:27;56124.53;;;-140.56;54.93
10482;BME280;5288;42.334;23.876;2023-05-03T11:21:54;56132.44;;;-140.56;54.43
10482;BME280;5288;42.334;23.876;2023-05-03T11:24:22;56130.47;;;-140.56;53.76
10482;BME280;5288;42.334;23.876;2023-05-03T11:26:49;56144.31;;;-140.56;53.92
10482;BME280;5288;42.334;23.876;2023-05-03T11:29:16;56156.16;;;-140.56;54.48
10482;BME280;5288;42.334;23.876;2023-05-03T11:31:45;56150.22;;;-140.56;53.83
10482;BME280;5288;42.334;23.876;2023-05-03T11:34:12;56100.81;;;-140.56;53.71
10482;BME280;5288;42.334;23.876;2023-05-03T11:36:40;56142.31;;;-140.56;54.38
10482;BME280;5288;42.334;23.876;2023-05-03T11:39:07;56112.69;;;-140.56;52.27
10482;BME280;5288;42.334;23.876;2023-05-03T11:41:34;56134.41;;;-140.56;52.29
10482;BME280;5288;42.334;23.876;2023-05-03T11:44:03;56114.66;;;-140.56;52.24
10482;BME280;5288;42.334;23.876;2023-05-03T11:46:32;56152.22;;;-140.56;53.79
10482;BME280;5288;42.334;23.876;2023-05-03T11:49:01;56142.31;;;-140.56;53.10
10482;BME280;5288;42.334;23.876;2023-05-03T11:51:29;56152.22;;;-140.56;53.86
10482;BME280;5288;42.334;23.876;2023-05-03T11:53:57;56128.50;;;-140.56;54.00
10482;BME280;5288;42.334;23.876;2023-05-03T11:56:24;56148.25;;;-140.56;54.25
10482;BME280;5288;42.334;23.876;2023-05-03T11:58:53;56130.47;;;-140.56;54.85
10482;BME280;5288;42.334;23.876;2023-05-03T12:01:22;56120.59;;;-140.56;55.42
10482;BME280;5288;42.334;23.876;2023-05-03T12:03:53;56154.19;;;-140.56;55.90
10482;BME280;5288;42.334;23.876;2023-05-03T12:06:22;56124.53;;;-140.56;56.74
10482;BME280;5288;42.334;23.876;2023-05-03T12:08:49;56160.13;;;-140.56;57.17
10482;BME280;5288;42.334;23.876;2023-05-03T12:11:16;56189.75;;;-140.56;57.09
10482;BME280;5288;42.334;23.876;2023-05-03T12:13:43;56128.50;;;-140.56;57.41
10482;BME280;5288;42.334;23.876;2023-05-03T12:16:11;56164.06;;;-140.56;58.38
10482;BME280;5288;42.334;23.876;2023-05-03T12:18:47;56146.28;;;-140.56;58.47
10482;BME280;5288;42.334;23.876;2023-05-03T12:21:18;56150.22;;;-140.56;58.86
10482;BME280;5288;42.334;23.876;2023-05-03T12:23:46;56185.81;;;-140.56;60.25
10482;BME280;5288;42.334;23.876;2023-05-03T12:26:16;56162.09;;;-140.56;59.99
10482;BME280;5288;42.334;23.876;2023-05-03T12:28:44;56183.81;;;-140.56;59.85
10482;BME280;5288;42.334;23.876;2023-05-03T12:31:12;56160.13;;;-140.56;59.89
10482;BME280;5288;42.334;23.876;2023-05-03T12:33:39;56225.31;;;-140.56;60.21
10482;BME280;5288;42.334;23.876;2023-05-03T12:36:07;56171.97;;;-140.56;60.75
10482;BME280;5288;42.334;23.876;2023-05-03T12:38:35;56197.66;;;-140.56;61.14
10482;BME280;5288;42.334;23.876;2023-05-03T12:41:03;56171.97;;;-140.56;61.26
10482;BME280;5288;42.334;23.876;2023-05-03T12:43:30;56179.88;;;-140.56;60.99
10482;BME280;5288;42.334;23.876;2023-05-03T12:45:57;56179.88;;;-140.56;62.06
10482;BME280;5288;42.334;23.876;2023-05-03T12:48:27;56166.03;;;-140.56;62.12